Flight Number: AVA3169 Duration: 2:45
Departure: Owen Roberts Airport (MWCR) at 09:00 Distance: 973.567 Nm
Arrival: Bogota Eldorado (SKBO) at 11:45 Equipment: CRJ700

Weather Information

Sunrise: 11:17 Sunset: 23:38 (UTC)


Sunrise: 10:55 Sunset: 23:02 (UTC)

TAF:2020/04/05 12:50 TAF SKBO 051030Z 0512/0612 05005KT 9999 SCT020 SCT090 TEMPO 0512/0513 9000 MIFG SCT015 BECMG 0515/0517 13010KT TEMPO 0519/0523 7000 -DZRA SCT018TCU BECMG 0523/0601 04005KT TEMPO 0610/0612 8000 VCFG -DZ SCT013 TX21/0518Z TN10/0610Z

This route has never been flown.

Route map